createdAt,value
2019-05-13T00:00:44.622Z,8.60
2019-05-13T00:03:13.900Z,8.60
2019-05-13T00:05:44.475Z,8.60
2019-05-13T00:18:14.456Z,8.00
2019-05-13T00:20:44.362Z,8.10
2019-05-13T00:23:14.284Z,8.00
2019-05-13T00:25:44.473Z,7.80
2019-05-13T00:28:14.461Z,7.70
2019-05-13T00:30:44.525Z,7.50
2019-05-13T00:33:14.141Z,7.50
2019-05-13T00:35:44.311Z,7.50
2019-05-13T00:38:14.145Z,7.50
2019-05-13T00:40:44.288Z,7.40
2019-05-13T00:43:14.267Z,7.50
2019-05-13T00:45:44.450Z,7.40
2019-05-13T00:48:14.270Z,7.20
2019-05-13T00:50:44.313Z,7.20
2019-05-13T00:53:13.558Z,7.30
2019-05-13T00:55:44.468Z,7.20
2019-05-13T00:58:14.081Z,7.20
2019-05-13T01:00:44.581Z,7.30
2019-05-13T01:03:14.169Z,7.30
2019-05-13T01:05:44.474Z,7.20
2019-05-13T01:08:14.592Z,7.20
2019-05-13T01:10:45.255Z,7.20
2019-05-13T01:13:14.159Z,7.20
2019-05-13T01:15:44.299Z,7.10
2019-05-13T01:18:14.229Z,7.20
2019-05-13T01:20:43.883Z,7.10
2019-05-13T01:23:14.228Z,7.00
2019-05-13T01:25:44.546Z,7.00
2019-05-13T01:28:13.723Z,7.00
2019-05-13T01:30:43.896Z,7.00
2019-05-13T01:33:14.451Z,6.90
2019-05-13T01:35:44.590Z,6.90
2019-05-13T01:38:13.780Z,6.90
2019-05-13T01:40:43.939Z,6.80
2019-05-13T01:43:14.431Z,6.80
2019-05-13T01:45:44.192Z,6.80
2019-05-13T01:48:14.163Z,6.70
2019-05-13T01:50:44.461Z,6.60
2019-05-13T01:53:14.427Z,6.60
2019-05-13T01:55:44.341Z,6.60
2019-05-13T01:58:14.618Z,6.50
2019-05-13T02:00:44.371Z,6.50
2019-05-13T02:03:14.450Z,6.40
2019-05-13T02:05:44.374Z,6.40
2019-05-13T02:08:14.293Z,6.20
2019-05-13T02:10:54.835Z,6.20
2019-05-13T02:13:24.851Z,6.20
2019-05-13T02:15:55.455Z,6.10
2019-05-13T02:18:24.918Z,6.10
2019-05-13T02:20:55.308Z,6.10
2019-05-13T02:23:24.855Z,6.00
2019-05-13T02:25:54.532Z,6.00
2019-05-13T02:28:24.731Z,5.90
2019-05-13T02:30:56.714Z,5.90
2019-05-13T02:33:25.128Z,5.90
2019-05-13T02:35:54.231Z,5.80
2019-05-13T02:38:28.951Z,5.80
2019-05-13T02:40:53.983Z,5.70
2019-05-13T02:43:24.222Z,5.70
2019-05-13T02:45:54.356Z,5.70
2019-05-13T02:48:24.204Z,5.70
2019-05-13T02:50:54.138Z,5.70
2019-05-13T02:53:24.210Z,5.70
2019-05-13T02:55:53.682Z,5.70
2019-05-13T02:58:25.123Z,5.80
2019-05-13T03:00:54.192Z,5.80
2019-05-13T03:03:23.842Z,5.70
2019-05-13T03:05:53.749Z,5.70
2019-05-13T03:08:39.734Z,5.60
2019-05-13T03:10:53.910Z,5.60
2019-05-13T03:13:23.815Z,5.60
2019-05-13T03:16:14.220Z,5.50
2019-05-13T03:18:43.766Z,5.50
2019-05-13T03:21:13.323Z,5.50
2019-05-13T03:23:43.950Z,5.40
2019-05-13T03:26:13.447Z,5.40
2019-05-13T03:28:43.810Z,5.30
2019-05-13T03:31:16.562Z,5.30
2019-05-13T03:33:46.361Z,5.30
2019-05-13T03:36:16.525Z,5.30
2019-05-13T03:39:01.538Z,5.20
2019-05-13T03:41:17.540Z,5.20
2019-05-13T03:43:47.529Z,5.30
2019-05-13T03:46:18.966Z,5.20
2019-05-13T03:48:52.882Z,5.10
2019-05-13T03:51:22.489Z,5.00
2019-05-13T03:53:53.579Z,5.10
2019-05-13T03:56:23.910Z,5.10
2019-05-13T03:58:53.753Z,5.10
2019-05-13T04:01:23.299Z,5.10
2019-05-13T04:03:52.914Z,5.10
2019-05-13T04:06:23.256Z,5.00
2019-05-13T04:08:53.986Z,5.00
2019-05-13T04:11:23.753Z,5.00
2019-05-13T04:13:53.035Z,5.00
2019-05-13T04:16:23.833Z,5.00
2019-05-13T04:18:53.822Z,5.00
2019-05-13T04:21:23.296Z,5.00
2019-05-13T04:23:53.269Z,5.00
2019-05-13T04:26:23.557Z,5.10
2019-05-13T04:28:53.324Z,5.10
2019-05-13T04:31:22.911Z,5.10
2019-05-13T04:33:53.390Z,5.10
2019-05-13T04:36:23.648Z,5.20
2019-05-13T04:38:53.182Z,5.20
2019-05-13T04:41:23.119Z,5.30
2019-05-13T04:43:54.181Z,5.30
2019-05-13T04:46:23.726Z,5.30
2019-05-13T04:48:53.303Z,5.30
2019-05-13T04:51:22.930Z,5.40
2019-05-13T04:53:56.086Z,5.40
2019-05-13T04:56:22.867Z,5.50
2019-05-13T04:58:52.887Z,5.50
2019-05-13T05:01:55.320Z,5.60
2019-05-13T05:04:30.861Z,5.60
2019-05-13T05:07:27.424Z,5.70
2019-05-13T05:10:23.381Z,5.70
2019-05-13T05:13:07.994Z,5.80
2019-05-13T05:16:04.121Z,5.80
2019-05-13T05:19:19.179Z,5.90
2019-05-13T05:21:58.215Z,6.00
2019-05-13T05:24:46.248Z,6.10
2019-05-13T05:27:47.520Z,6.10
2019-05-13T05:30:55.069Z,6.10
2019-05-13T05:33:47.528Z,6.30
2019-05-13T05:37:06.253Z,6.30
2019-05-13T05:39:37.880Z,6.40
2019-05-13T05:42:07.439Z,6.40
2019-05-13T05:44:37.354Z,6.50
2019-05-13T05:47:06.393Z,6.50
2019-05-13T05:49:37.713Z,6.60
2019-05-13T05:52:08.745Z,6.60
2019-05-13T05:54:41.971Z,6.70
2019-05-13T05:57:12.163Z,6.80
2019-05-13T05:59:42.615Z,6.90
2019-05-13T06:02:12.307Z,6.90
2019-05-13T06:04:43.039Z,7.00
2019-05-13T06:07:14.503Z,7.20
2019-05-13T06:09:43.376Z,7.20
2019-05-13T06:12:12.670Z,7.20
2019-05-13T06:14:42.422Z,7.30
2019-05-13T06:17:11.571Z,7.30
2019-05-13T06:19:41.882Z,7.40
2019-05-13T06:22:12.282Z,7.40
2019-05-13T06:24:42.260Z,7.50
2019-05-13T06:27:11.917Z,7.60
2019-05-13T06:29:42.251Z,7.60
2019-05-13T06:32:19.161Z,7.80
2019-05-13T06:34:42.411Z,7.90
2019-05-13T06:37:11.524Z,8.00
2019-05-13T06:39:41.970Z,8.10
2019-05-13T06:42:11.647Z,8.10
2019-05-13T06:44:42.132Z,8.30
2019-05-13T06:47:11.556Z,8.40
2019-05-13T06:49:42.823Z,8.50
2019-05-13T06:52:12.147Z,8.60
2019-05-13T06:54:41.811Z,8.90
2019-05-13T06:57:13.405Z,9.10
2019-05-13T06:59:41.991Z,9.00
2019-05-13T07:02:12.438Z,9.00
2019-05-13T07:04:41.677Z,9.00
2019-05-13T07:07:16.175Z,9.20
2019-05-13T07:09:42.693Z,9.30
2019-05-13T07:12:11.877Z,9.40
2019-05-13T07:14:41.350Z,9.40
2019-05-13T07:17:12.304Z,9.60
2019-05-13T07:19:41.595Z,9.70
2019-05-13T07:22:11.900Z,9.80
2019-05-13T07:24:41.425Z,9.90
2019-05-13T07:27:12.296Z,9.90
2019-05-13T07:29:42.327Z,10.20
2019-05-13T07:32:11.965Z,10.20
2019-05-13T07:34:43.918Z,10.30
2019-05-13T07:37:11.802Z,10.30
2019-05-13T07:39:41.894Z,10.40
2019-05-13T07:42:12.299Z,10.50
2019-05-13T07:44:42.481Z,10.60
2019-05-13T07:47:11.767Z,10.70
2019-05-13T07:49:42.017Z,10.70
2019-05-13T07:52:11.909Z,10.70
2019-05-13T07:54:42.145Z,10.80
2019-05-13T07:57:12.310Z,10.80
2019-05-13T07:59:42.059Z,10.80
2019-05-13T08:02:12.297Z,10.90
2019-05-13T08:04:42.078Z,10.80
2019-05-13T08:07:14.334Z,10.80
2019-05-13T08:09:43.378Z,10.90
2019-05-13T08:12:14.558Z,11.10
2019-05-13T08:14:43.623Z,11.10
2019-05-13T08:17:12.826Z,11.40
2019-05-13T08:19:41.758Z,12.50
2019-05-13T08:22:12.159Z,13.40
2019-05-13T08:24:42.465Z,13.30
2019-05-13T08:27:11.866Z,14.10
2019-05-13T08:32:11.376Z,14.80
2019-05-13T08:34:41.715Z,14.50
2019-05-13T08:37:11.439Z,14.50
2019-05-13T08:39:41.466Z,13.80
2019-05-13T08:44:41.728Z,14.70
2019-05-13T08:47:12.007Z,15.90
2019-05-13T08:49:41.700Z,14.70
2019-05-13T08:52:12.080Z,13.60
2019-05-13T08:54:41.939Z,13.80
2019-05-13T08:57:11.779Z,14.20
2019-05-13T08:59:42.252Z,15.10
2019-05-13T09:02:11.758Z,15.10
2019-05-13T09:07:12.138Z,17.10
2019-05-13T09:09:41.955Z,16.60
2019-05-13T09:12:11.717Z,14.70
2019-05-13T09:14:42.050Z,14.70
2019-05-13T09:17:12.083Z,15.70
2019-05-13T09:19:41.557Z,16.20
2019-05-13T09:22:12.433Z,15.80
2019-05-13T09:24:42.490Z,14.30
2019-05-13T09:27:12.175Z,13.40
2019-05-13T09:29:42.780Z,12.70
2019-05-13T09:32:12.213Z,13.90
2019-05-13T09:39:41.577Z,16.10
2019-05-13T09:42:12.705Z,16.70
2019-05-13T09:49:44.174Z,14.50
2019-05-13T09:52:13.049Z,14.30
2019-05-13T09:54:42.684Z,14.90
2019-05-13T09:57:12.497Z,15.40
2019-05-13T09:59:42.277Z,15.50
2019-05-13T10:02:12.487Z,15.20
2019-05-13T10:04:43.975Z,14.80
2019-05-13T10:14:41.461Z,13.40
2019-05-13T10:17:12.708Z,13.20
2019-05-13T10:19:42.029Z,13.30
2019-05-13T10:22:12.115Z,13.20
2019-05-13T10:24:42.695Z,13.40
2019-05-13T10:27:12.593Z,13.00
2019-05-13T10:34:42.606Z,12.80
2019-05-13T10:37:11.819Z,12.80
2019-05-13T10:39:40.782Z,12.80
2019-05-13T10:42:12.065Z,13.50
2019-05-13T10:44:42.231Z,14.00
2019-05-13T10:52:52.247Z,15.80
2019-05-13T10:55:42.249Z,15.90
2019-05-13T11:07:02.976Z,15.90
2019-05-13T11:09:52.647Z,15.80
2019-05-13T11:29:23.102Z,17.40
2019-05-13T11:32:13.186Z,16.10
2019-05-13T11:37:32.040Z,14.00
2019-05-13T11:40:22.503Z,14.20
2019-05-13T11:55:02.511Z,16.00
2019-05-13T12:00:55.694Z,18.30
2019-05-13T12:03:36.788Z,19.30
2019-05-13T12:09:03.087Z,17.20
2019-05-13T12:11:43.314Z,16.70
2019-05-13T12:14:42.944Z,17.10
2019-05-13T12:16:56.716Z,19.00
2019-05-13T12:21:54.425Z,20.70
2019-05-13T12:24:43.006Z,18.80
2019-05-13T12:27:31.751Z,18.30
2019-05-13T12:33:06.093Z,16.70
2019-05-13T12:35:35.221Z,16.80
2019-05-13T12:38:25.029Z,18.10
2019-05-13T12:40:54.118Z,18.20
2019-05-13T12:43:44.116Z,17.60
2019-05-13T12:46:32.373Z,18.20
2019-05-13T12:49:04.077Z,17.70
2019-05-13T12:51:32.682Z,16.50
2019-05-13T12:54:23.652Z,16.00
2019-05-13T12:57:35.586Z,16.60
2019-05-13T13:00:26.963Z,16.70
2019-05-13T13:03:15.541Z,17.60
2019-05-13T13:06:25.069Z,18.20
2019-05-13T13:11:56.893Z,17.80
2019-05-13T13:14:46.431Z,16.30
2019-05-13T13:17:35.503Z,15.70
2019-05-13T13:20:24.497Z,15.70
2019-05-13T13:23:13.975Z,16.40
2019-05-13T13:26:15.197Z,16.20
2019-05-13T13:31:47.405Z,17.80
2019-05-13T13:34:33.446Z,17.70
2019-05-13T13:40:29.113Z,17.80
2019-05-13T13:43:05.326Z,17.80
2019-05-13T13:46:06.524Z,17.80
2019-05-13T13:51:14.724Z,16.90
2019-05-13T13:54:02.382Z,17.10
2019-05-13T13:59:27.756Z,16.90
2019-05-13T14:02:38.426Z,17.40
2019-05-13T14:08:15.722Z,17.40
2019-05-13T14:11:04.292Z,17.00
2019-05-13T14:13:53.470Z,16.70
2019-05-13T14:16:32.510Z,17.00
2019-05-13T14:19:18.002Z,17.30
2019-05-13T14:21:47.522Z,18.10
2019-05-13T14:24:21.585Z,18.60
2019-05-13T14:26:52.381Z,18.60
2019-05-13T14:29:48.894Z,18.20
2019-05-13T14:32:32.508Z,17.80
2019-05-13T14:35:22.040Z,18.20
2019-05-13T14:38:14.452Z,17.70
2019-05-13T14:41:22.015Z,18.00
2019-05-13T14:46:56.586Z,19.30
2019-05-13T14:49:39.304Z,19.10
2019-05-13T14:52:22.259Z,18.60
2019-05-13T14:55:03.710Z,18.30
2019-05-13T14:57:45.480Z,18.20
2019-05-13T15:00:26.690Z,17.70
2019-05-13T15:06:07.286Z,17.10
2019-05-13T15:08:48.669Z,17.20
2019-05-13T15:11:32.164Z,17.10
2019-05-13T15:14:13.162Z,17.30
2019-05-13T15:17:02.871Z,16.70
2019-05-13T15:19:44.007Z,16.80
2019-05-13T15:22:31.609Z,16.90
2019-05-13T15:28:04.021Z,17.00
2019-05-13T15:30:43.374Z,17.20
2019-05-13T15:33:24.936Z,17.40
2019-05-13T15:36:06.646Z,17.70
2019-05-13T15:38:47.747Z,17.90
2019-05-13T15:41:29.521Z,17.80
2019-05-13T15:44:16.430Z,18.00
2019-05-13T15:47:01.790Z,17.90
2019-05-13T15:52:43.208Z,17.90
2019-05-13T15:55:45.831Z,17.70
2019-05-13T16:04:02.786Z,17.20
2019-05-13T16:06:52.320Z,16.80
2019-05-13T16:09:42.053Z,16.50
2019-05-13T16:12:32.110Z,16.00
2019-05-13T16:15:21.859Z,16.00
2019-05-13T16:18:11.717Z,15.40
2019-05-13T16:21:01.747Z,15.50
2019-05-13T16:23:52.078Z,15.50
2019-05-13T16:26:43.817Z,15.70
2019-05-13T16:29:32.333Z,15.80
2019-05-13T16:32:22.699Z,15.70
2019-05-13T16:35:13.403Z,15.60
2019-05-13T16:38:01.796Z,15.60
2019-05-13T16:40:51.983Z,15.30
2019-05-13T16:43:21.940Z,15.60
2019-05-13T16:45:59.428Z,15.60
2019-05-13T16:48:50.603Z,15.80
2019-05-13T16:51:38.926Z,16.00
2019-05-13T16:54:47.100Z,16.10
2019-05-13T16:57:38.603Z,16.20
2019-05-13T17:00:11.251Z,16.10
2019-05-13T17:03:04.124Z,16.00
2019-05-13T17:05:52.784Z,15.90
2019-05-13T17:08:22.346Z,15.70
2019-05-13T17:10:51.860Z,15.40
2019-05-13T17:13:23.614Z,15.10
2019-05-13T17:16:22.914Z,15.10
2019-05-13T17:18:54.612Z,15.00
2019-05-13T17:21:24.433Z,14.80
2019-05-13T17:24:12.962Z,14.70
2019-05-13T17:30:11.385Z,14.50
2019-05-13T17:33:02.261Z,14.40
2019-05-13T17:35:51.290Z,14.30
2019-05-13T17:47:15.644Z,13.70
2019-05-13T17:49:56.784Z,13.70
2019-05-13T17:52:38.011Z,13.70
2019-05-13T17:58:06.138Z,13.80
2019-05-13T18:00:56.118Z,13.80
2019-05-13T18:03:45.225Z,13.80
2019-05-13T18:06:36.905Z,13.80
2019-05-13T18:09:26.015Z,13.60
2019-05-13T18:15:02.996Z,13.50
2019-05-13T18:21:15.149Z,13.10
2019-05-13T18:24:04.391Z,13.00
2019-05-13T18:32:12.315Z,12.60
2019-05-13T18:34:41.505Z,12.40
2019-05-13T18:37:11.846Z,12.30
2019-05-13T18:39:41.604Z,12.20
2019-05-13T18:42:11.450Z,12.10
2019-05-13T18:44:42.122Z,12.10
2019-05-13T18:47:12.087Z,12.00
2019-05-13T18:52:11.828Z,11.80
2019-05-13T18:54:42.165Z,11.80
2019-05-13T18:57:12.194Z,11.90
2019-05-13T18:59:41.675Z,11.80
2019-05-13T19:02:12.280Z,11.80
2019-05-13T19:09:21.808Z,11.90
2019-05-13T19:11:51.624Z,11.90
2019-05-13T19:14:21.220Z,11.90
2019-05-13T19:16:51.041Z,11.80
2019-05-13T19:19:22.706Z,11.80
2019-05-13T19:21:51.103Z,11.70
2019-05-13T19:24:20.200Z,11.60
2019-05-13T19:26:49.045Z,11.60
2019-05-13T19:29:18.056Z,11.50
2019-05-13T19:31:47.209Z,11.40
2019-05-13T19:34:16.219Z,11.40
2019-05-13T19:36:45.208Z,11.30
2019-05-13T19:39:14.218Z,11.20
2019-05-13T19:44:12.001Z,11.10
2019-05-13T19:46:42.160Z,11.00
2019-05-13T19:49:12.329Z,10.90
2019-05-13T19:51:41.908Z,10.90
2019-05-13T19:54:11.718Z,10.80
2019-05-13T19:56:40.886Z,10.80
2019-05-13T19:59:12.246Z,10.80
2019-05-13T20:01:42.319Z,10.70
2019-05-13T20:04:11.141Z,10.60
2019-05-13T20:06:41.517Z,10.60
2019-05-13T20:09:10.551Z,10.50
2019-05-13T20:11:41.766Z,10.50
2019-05-13T20:14:12.151Z,10.50
2019-05-13T20:16:41.686Z,10.40
2019-05-13T20:19:11.801Z,10.30
2019-05-13T20:21:42.606Z,10.30
2019-05-13T20:24:12.018Z,10.20
2019-05-13T20:26:41.505Z,10.20
2019-05-13T20:29:12.308Z,10.10
2019-05-13T20:31:41.432Z,10.10
2019-05-13T20:34:11.879Z,10.10
2019-05-13T20:36:42.324Z,10.00
2019-05-13T20:39:11.594Z,9.90
2019-05-13T20:41:41.429Z,9.80
2019-05-13T20:44:10.553Z,9.80
2019-05-13T20:46:41.950Z,9.90
2019-05-13T20:49:11.983Z,10.00
2019-05-13T20:51:41.182Z,10.00
2019-05-13T20:54:11.354Z,9.90
2019-05-13T20:56:42.174Z,9.80
2019-05-13T20:59:11.356Z,9.80
2019-05-13T21:01:41.955Z,9.70
2019-05-13T21:04:12.371Z,9.60
2019-05-13T21:06:42.243Z,9.50
2019-05-13T21:09:16.722Z,9.40
2019-05-13T21:11:42.243Z,9.30
2019-05-13T21:14:11.141Z,9.20
2019-05-13T21:16:41.732Z,9.10
2019-05-13T21:19:12.451Z,9.00
2019-05-13T21:24:10.685Z,8.80
2019-05-13T21:26:41.819Z,8.70
2019-05-13T21:29:11.131Z,8.60
2019-05-13T21:31:41.458Z,8.60
2019-05-13T21:34:11.897Z,8.50
2019-05-13T21:36:41.295Z,8.40
2019-05-13T21:39:12.199Z,8.30
2019-05-13T21:41:41.434Z,8.20
2019-05-13T21:44:11.925Z,8.20
2019-05-13T21:46:47.111Z,8.10
2019-05-13T21:49:17.544Z,8.10
2019-05-13T21:54:14.915Z,8.00
2019-05-13T21:56:43.769Z,7.90
2019-05-13T21:59:12.708Z,7.90
2019-05-13T22:01:42.402Z,8.00
2019-05-13T22:04:12.315Z,8.00
2019-05-13T22:06:41.585Z,7.90
2019-05-13T22:09:12.490Z,7.90
2019-05-13T22:11:41.980Z,7.90
2019-05-13T22:14:11.483Z,7.90
2019-05-13T22:16:41.234Z,8.00
2019-05-13T22:19:12.256Z,8.10
2019-05-13T22:21:42.353Z,8.10
2019-05-13T22:24:11.743Z,8.20
2019-05-13T22:26:42.027Z,8.20
2019-05-13T22:29:11.373Z,8.40
2019-05-13T22:31:42.043Z,8.50
2019-05-13T22:34:12.127Z,8.60
2019-05-13T22:36:41.401Z,8.60
2019-05-13T22:39:11.505Z,8.70
2019-05-13T22:41:42.064Z,8.70
2019-05-13T22:44:11.632Z,8.70
2019-05-13T22:46:41.345Z,8.70
2019-05-13T22:49:11.599Z,8.70
2019-05-13T22:51:41.298Z,8.70
2019-05-13T22:54:11.865Z,8.70
2019-05-13T22:56:41.864Z,8.70
2019-05-13T22:59:12.226Z,8.70
2019-05-13T23:01:41.905Z,8.60
2019-05-13T23:04:11.598Z,8.60
2019-05-13T23:06:40.516Z,8.60
2019-05-13T23:09:12.337Z,8.50
2019-05-13T23:11:41.797Z,8.50
2019-05-13T23:14:13.511Z,8.40
2019-05-13T23:16:42.163Z,8.40
2019-05-13T23:19:11.302Z,8.30
2019-05-13T23:21:41.823Z,8.30
2019-05-13T23:24:11.408Z,8.20
2019-05-13T23:26:42.204Z,8.10
2019-05-13T23:29:10.998Z,8.00
2019-05-13T23:31:41.508Z,8.00
2019-05-13T23:34:12.000Z,7.90
2019-05-13T23:36:42.254Z,7.80
2019-05-13T23:39:11.760Z,7.80
2019-05-13T23:41:41.667Z,7.90
2019-05-13T23:44:24.088Z,7.90
2019-05-13T23:46:42.093Z,7.90
2019-05-13T23:49:12.131Z,7.80
2019-05-13T23:51:41.568Z,7.80
2019-05-13T23:54:12.220Z,7.80
2019-05-13T23:56:41.706Z,7.70
2019-05-13T23:59:11.393Z,7.70
